Time;durP1;ratioP1;P1;durP2;ratioP2;P2;SDS_P1;SDS_P2;PMS_P1;PMS_P2;Temp;Humidity;BMP_temperature;BMP_pressure;BME280_temperature;BME280_humidity;BME280_pressure;Samples;Min_cycle;Max_cycle;Signal;HPM_P1;HPM_P2
2022/03/09 00:02:25;;;;;;;19.52;11.20;;;;;;;1.21;50.60;100356.31;4333025;33;34641;-66
2022/03/09 00:04:53;;;;;;;28.12;15.05;;;;;;;1.12;50.89;100356.50;4332014;33;34930;-67
2022/03/09 00:07:23;;;;;;;11.18;5.07;;;;;;;0.78;51.68;100358.44;4332707;33;34696;-66
2022/03/09 00:09:51;;;;;;;18.95;9.43;;;;;;;1.07;51.18;100358.87;4333033;33;33513;-68
2022/03/09 00:12:19;;;;;;;11.60;4.68;;;;;;;1.20;51.74;100357.31;4332886;33;34020;-66
2022/03/09 00:14:46;;;;;;;20.30;10.73;;;;;;;0.89;51.95;100357.25;4333307;33;34284;-65
2022/03/09 00:17:14;;;;;;;2.22;2.05;;;;;;;0.71;52.50;100367.28;4332695;33;34839;-67
2022/03/09 00:19:42;;;;;;;18.02;9.77;;;;;;;0.60;52.48;100374.66;4332580;33;34608;-66
2022/03/09 00:22:09;;;;;;;17.42;9.57;;;;;;;0.96;52.25;100374.25;4333303;33;33929;-66
2022/03/09 00:24:36;;;;;;;16.23;9.07;;;;;;;1.08;51.30;100374.75;4333192;33;33864;-66
2022/03/09 00:27:04;;;;;;;1.87;1.25;;;;;;;0.83;52.52;100371.28;4332449;33;34749;-67
2022/03/09 00:29:32;;;;;;;0.60;0.60;;;;;;;1.07;50.88;100366.88;4333070;33;33586;-66
2022/03/09 00:31:59;;;;;;;1.58;1.48;;;;;;;1.25;51.10;100366.66;4332989;33;34521;-66
2022/03/09 00:34:27;;;;;;;0.88;0.85;;;;;;;1.11;51.45;100368.22;4332776;33;34227;-67
2022/03/09 00:36:54;;;;;;;1.30;1.20;;;;;;;1.38;50.40;100370.47;4332761;33;34077;-66
2022/03/09 00:39:22;;;;;;;18.98;10.40;;;;;;;1.20;51.16;100370.66;4332816;33;33437;-66
2022/03/09 00:41:49;;;;;;;19.35;9.93;;;;;;;0.79;52.75;100380.63;4332425;33;33858;-66
2022/03/09 00:44:17;;;;;;;1.00;0.70;;;;;;;1.18;52.29;100374.53;4333169;33;34146;-67
2022/03/09 00:46:47;;;;;;;2.37;2.15;;;;;;;1.50;50.70;100372.75;4332624;33;34042;-67
2022/03/09 00:49:15;;;;;;;0.60;0.60;;;;;;;1.50;50.01;100365.53;4332533;33;33242;-66
2022/03/09 00:51:42;;;;;;;1.52;0.82;;;;;;;1.59;49.48;100367.16;4332846;33;33866;-67
2022/03/09 00:54:10;;;;;;;18.42;10.05;;;;;;;1.09;50.98;100360.38;4332590;33;34273;-67
2022/03/09 00:56:37;;;;;;;1.37;1.23;;;;;;;1.29;51.05;100357.28;4332237;33;33789;-67
2022/03/09 00:59:05;;;;;;;16.92;9.95;;;;;;;0.40;52.42;100360.00;4332898;33;33325;-67
2022/03/09 01:01:33;;;;;;;0.50;0.50;;;;;;;0.75;51.90;100357.94;4332790;33;34208;-66
2022/03/09 01:04:01;;;;;;;17.20;8.63;;;;;;;0.94;51.17;100352.22;4332656;33;34888;-67
2022/03/09 01:06:28;;;;;;;18.30;9.18;;;;;;;1.34;50.43;100341.53;4332331;33;33858;-66
2022/03/09 01:08:57;;;;;;;15.75;8.95;;;;;;;1.51;50.20;100342.31;4332758;33;34428;-66
2022/03/09 01:11:25;;;;;;;15.48;8.70;;;;;;;1.58;50.33;100341.44;4332329;33;34591;-66
2022/03/09 01:13:52;;;;;;;9.85;5.57;;;;;;;1.72;49.53;100344.38;4332573;33;34307;-66
2022/03/09 01:16:20;;;;;;;17.35;9.57;;;;;;;1.41;50.97;100339.88;4331950;33;34588;-66
2022/03/09 01:18:47;;;;;;;0.77;0.77;;;;;;;1.68;50.23;100327.81;4332656;33;33383;-66
2022/03/09 01:21:15;;;;;;;16.85;8.70;;;;;;;1.70;49.89;100331.16;4332516;33;33913;-65
2022/03/09 01:23:45;;;;;;;17.12;9.55;;;;;;;1.81;49.27;100332.59;4332680;33;33705;-67
2022/03/09 01:26:13;;;;;;;16.62;9.73;;;;;;;1.59;49.76;100328.91;4332296;33;33839;-66
2022/03/09 01:28:40;;;;;;;17.25;9.35;;;;;;;1.16;51.68;100334.59;4332435;33;33656;-67
2022/03/09 01:31:08;;;;;;;15.23;7.90;;;;;;;1.55;50.63;100327.56;4332245;33;34658;-67
2022/03/09 01:33:35;;;;;;;15.57;8.88;;;;;;;1.17;51.17;100330.12;4332404;33;35068;-66
2022/03/09 01:36:03;;;;;;;18.90;9.35;;;;;;;1.84;50.11;100330.41;4332230;33;34602;-66
2022/03/09 01:38:31;;;;;;;14.75;8.25;;;;;;;1.51;50.83;100327.12;4332293;33;33258;-68
2022/03/09 01:40:59;;;;;;;5.68;3.42;;;;;;;1.25;51.06;100327.38;4332192;33;33992;-66
2022/03/09 01:43:27;;;;;;;0.98;0.88;;;;;;;1.31;50.68;100333.88;4332558;33;35044;-66
2022/03/09 01:45:54;;;;;;;17.20;9.10;;;;;;;1.57;50.44;100342.44;4331793;33;33658;-67
2022/03/09 01:48:22;;;;;;;18.30;9.82;;;;;;;1.52;50.24;100346.66;4332457;33;33524;-66
2022/03/09 01:50:49;;;;;;;0.85;0.73;;;;;;;1.79;49.10;100348.84;4332237;33;34009;-67
2022/03/09 01:53:18;;;;;;;16.45;8.80;;;;;;;2.02;48.23;100353.38;4318909;33;33860;-66
2022/03/09 01:55:46;;;;;;;18.27;9.85;;;;;;;1.51;49.40;100350.31;4331949;33;34253;-66
2022/03/09 01:58:13;;;;;;;17.42;9.82;;;;;;;1.13;50.32;100353.66;4332210;33;33755;-66
2022/03/09 02:00:41;;;;;;;18.52;9.65;;;;;;;0.38;52.65;100362.00;4331950;33;34622;-66
2022/03/09 02:03:08;;;;;;;1.75;1.30;;;;;;;0.39;52.49;100359.16;4332180;33;35094;-66
2022/03/09 02:05:36;;;;;;;17.55;9.48;;;;;;;0.42;52.68;100357.97;4332288;33;34114;-67
2022/03/09 02:10:51;;;;;;;9.52;5.30;;;;;;;1.09;51.86;100357.69;4332021;33;34779;-66
2022/03/09 02:13:18;;;;;;;0.60;0.60;;;;;;;0.92;52.09;100356.91;4318973;33;34274;-67
2022/03/09 02:15:46;;;;;;;17.17;9.50;;;;;;;1.07;51.64;100365.03;4331648;33;34591;-66
2022/03/09 02:18:13;;;;;;;16.80;8.93;;;;;;;1.21;51.66;100368.84;4331959;33;33419;-66
2022/03/09 02:20:42;;;;;;;16.75;8.52;;;;;;;1.78;50.07;100362.41;4331653;33;33061;-66
2022/03/09 02:23:11;;;;;;;1.37;1.27;;;;;;;1.27;51.21;100361.97;4331595;33;35144;-67
2022/03/09 02:25:39;;;;;;;10.27;5.72;;;;;;;1.48;50.89;100350.69;4331670;33;33638;-66
2022/03/09 02:28:06;;;;;;;15.13;8.93;;;;;;;0.92;51.88;100348.06;4318661;33;34264;-66
2022/03/09 02:30:34;;;;;;;18.05;9.35;;;;;;;1.17;51.37;100346.16;4333415;33;34865;-66
2022/03/09 02:33:01;;;;;;;19.20;9.13;;;;;;;1.29;50.61;100363.47;4333744;33;33961;-66
2022/03/09 02:35:29;;;;;;;16.23;8.88;;;;;;;1.58;50.58;100360.16;4333473;33;34696;-67
2022/03/09 02:37:56;;;;;;;15.18;8.35;;;;;;;1.33;50.97;100362.09;4333623;33;33661;-67
2022/03/09 02:40:24;;;;;;;15.98;8.45;;;;;;;2.04;49.24;100354.03;4333698;33;33937;-67
2022/03/09 02:42:51;;;;;;;14.63;8.60;;;;;;;1.99;49.15;100359.09;4333117;33;32403;-67
2022/03/09 02:45:19;;;;;;;1.00;0.93;;;;;;;2.22;48.95;100359.06;4333556;33;34945;-67
2022/03/09 02:47:46;;;;;;;18.17;8.80;;;;;;;2.18;50.74;100363.97;4333610;33;34167;-67
2022/03/09 02:50:15;;;;;;;14.45;8.63;;;;;;;2.15;50.29;100358.13;4333375;33;33920;-67
2022/03/09 02:52:44;;;;;;;2.35;1.67;;;;;;;1.86;50.02;100359.69;4333767;33;34914;-66
2022/03/09 02:55:12;;;;;;;15.48;8.45;;;;;;;2.06;49.99;100357.34;4333475;33;33941;-67
2022/03/09 02:57:40;;;;;;;18.33;8.60;;;;;;;1.56;50.73;100372.06;4333364;33;33326;-66
2022/03/09 03:00:09;;;;;;;19.92;8.13;;;;;;;1.70;50.85;100368.63;4333454;33;34807;-66
2022/03/09 03:02:37;;;;;;;13.82;8.10;;;;;;;1.46;51.44;100368.75;4333756;33;34317;-66
2022/03/09 03:05:06;;;;;;;12.85;6.30;;;;;;;1.87;51.22;100369.34;4333446;33;34778;-66
2022/03/09 03:07:34;;;;;;;11.40;6.70;;;;;;;2.35;49.53;100361.16;4333138;33;33503;-67
2022/03/09 03:10:03;;;;;;;14.00;8.43;;;;;;;1.93;49.54;100354.44;4333088;33;34241;-67
2022/03/09 03:12:31;;;;;;;15.25;8.80;;;;;;;2.11;49.18;100343.44;4333134;33;34280;-66
2022/03/09 03:14:59;;;;;;;16.45;8.57;;;;;;;2.15;48.87;100344.75;4333628;33;34053;-67
2022/03/09 03:17:26;;;;;;;15.30;8.30;;;;;;;2.08;49.42;100335.78;4333146;33;34400;-66
2022/03/09 03:19:54;;;;;;;1.05;0.95;;;;;;;2.04;49.41;100328.09;4333500;33;33694;-66
2022/03/09 03:22:21;;;;;;;1.27;1.05;;;;;;;1.99;49.46;100330.47;4333186;33;33861;-66
2022/03/09 03:24:49;;;;;;;14.98;8.65;;;;;;;1.61;50.53;100333.06;4333446;33;33939;-66
2022/03/09 03:27:17;;;;;;;12.40;6.37;;;;;;;1.02;52.21;100344.19;4333294;33;33565;-66
2022/03/09 03:29:44;;;;;;;18.77;9.50;;;;;;;1.22;51.72;100343.78;4333299;33;33318;-66
2022/03/09 03:32:12;;;;;;;16.33;8.65;;;;;;;1.01;51.82;100342.50;4333066;33;34215;-66
2022/03/09 03:34:40;;;;;;;17.25;8.55;;;;;;;1.42;51.69;100342.34;4333070;33;34522;-66
2022/03/09 03:37:07;;;;;;;15.10;8.48;;;;;;;1.89;50.41;100329.06;4332822;33;34477;-66
2022/03/09 03:39:35;;;;;;;16.80;9.43;;;;;;;1.66;50.82;100327.16;4333221;33;34393;-67
2022/03/09 03:42:02;;;;;;;16.48;8.48;;;;;;;1.75;51.95;100342.19;4333091;33;34192;-67
2022/03/09 03:44:30;;;;;;;16.00;7.90;;;;;;;1.90;51.33;100338.72;4333320;33;33519;-67
2022/03/09 03:46:57;;;;;;;2.55;2.15;;;;;;;1.27;52.48;100344.09;4332915;33;33343;-66
2022/03/09 03:49:25;;;;;;;13.73;8.40;;;;;;;1.31;52.10;100344.56;4333380;33;33969;-66
2022/03/09 03:51:52;;;;;;;15.13;8.15;;;;;;;1.15;52.48;100343.62;4332924;33;34280;-68
2022/03/09 03:54:20;;;;;;;18.70;9.98;;;;;;;1.01;52.94;100350.53;4332629;33;34719;-67
2022/03/09 03:56:47;;;;;;;0.52;0.52;;;;;;;1.37;51.85;100351.91;4332566;33;34450;-67
2022/03/09 03:59:15;;;;;;;21.10;9.60;;;;;;;1.65;52.50;100352.28;4332840;33;34550;-66
2022/03/09 04:01:42;;;;;;;21.10;9.93;;;;;;;2.10;51.54;100356.00;4331632;33;34339;-66
2022/03/09 04:04:10;;;;;;;4.95;2.45;;;;;;;1.79;51.32;100353.34;4332924;33;33778;-67
2022/03/09 04:06:38;;;;;;;18.60;10.07;;;;;;;1.16;53.00;100355.97;4332921;33;32903;-66
2022/03/09 04:09:05;;;;;;;9.07;4.37;;;;;;;0.65;54.02;100352.81;4332962;33;33919;-67
2022/03/09 04:11:33;;;;;;;17.77;9.25;;;;;;;0.49;54.58;100350.97;4332929;33;34176;-66
2022/03/09 04:14:03;;;;;;;19.27;10.23;;;;;;;0.61;54.12;100349.63;4332754;33;33508;-67
2022/03/09 04:16:31;;;;;;;17.27;9.13;;;;;;;1.79;51.16;100340.81;4332521;33;34529;-66
2022/03/09 04:18:59;;;;;;;18.90;9.73;;;;;;;2.00;50.46;100331.31;4332912;33;33993;-67
2022/03/09 04:21:26;;;;;;;3.60;2.33;;;;;;;1.40;51.54;100338.19;4332742;33;33890;-66
2022/03/09 04:23:54;;;;;;;18.12;9.73;;;;;;;1.28;51.83;100327.06;4332925;33;33974;-67
2022/03/09 04:26:21;;;;;;;0.70;0.70;;;;;;;1.30;53.17;100324.22;4332681;33;33591;-66
2022/03/09 04:28:48;;;;;;;18.77;9.95;;;;;;;1.41;52.33;100327.31;4333252;33;34003;-67
2022/03/09 04:31:16;;;;;;;17.45;9.32;;;;;;;1.20;52.28;100341.28;4332993;33;34254;-67
2022/03/09 04:33:44;;;;;;;18.27;9.55;;;;;;;1.39;51.32;100337.34;4329192;33;33769;-66
2022/03/09 04:36:11;;;;;;;17.40;9.30;;;;;;;1.44;50.96;100337.66;4318062;33;33405;-76
2022/03/09 04:38:39;;;;;;;16.37;9.60;;;;;;;1.58;51.55;100344.12;4318202;33;34141;-66
2022/03/09 04:41:10;;;;;;;17.60;10.00;;;;;;;1.36;52.20;100335.03;4318093;33;34108;-72
2022/03/09 04:43:38;;;;;;;18.45;9.80;;;;;;;1.43;51.85;100346.69;4318040;33;33764;-66
2022/03/09 04:46:05;;;;;;;3.30;1.58;;;;;;;1.90;52.42;100352.09;4317922;33;33434;-67
2022/03/09 04:48:34;;;;;;;11.98;5.95;;;;;;;2.52;49.60;100346.59;4318156;33;35372;-67
2022/03/09 04:51:02;;;;;;;21.30;11.48;;;;;;;2.38;49.26;100340.22;4317285;33;34077;-67
2022/03/09 04:53:30;;;;;;;14.75;5.62;;;;;;;2.13;49.88;100344.09;4318369;33;33713;-66
2022/03/09 04:55:58;;;;;;;18.90;9.95;;;;;;;1.97;50.98;100339.69;4317678;33;33476;-66
2022/03/09 04:58:27;;;;;;;16.58;9.20;;;;;;;1.70;51.94;100352.56;4318075;33;34078;-67
2022/03/09 05:00:54;;;;;;;1.23;1.12;;;;;;;1.46;52.59;100363.41;4318038;33;34918;-66
2022/03/09 05:03:22;;;;;;;20.92;10.85;;;;;;;1.72;51.70;100355.06;4318200;33;34040;-67
2022/03/09 05:05:49;;;;;;;19.90;11.02;;;;;;;1.72;51.47;100350.53;4317779;33;33734;-68
2022/03/09 05:08:17;;;;;;;19.33;9.88;;;;;;;1.25;52.45;100343.41;4318391;33;33602;-65
2022/03/09 05:10:45;;;;;;;19.70;10.23;;;;;;;0.77;53.39;100335.37;4317916;33;35043;-67
2022/03/09 05:13:12;;;;;;;18.85;10.35;;;;;;;1.69;51.51;100328.69;4317713;33;34989;-67
2022/03/09 05:15:40;;;;;;;19.30;9.68;;;;;;;1.90;50.17;100322.66;4317787;33;34545;-66
2022/03/09 05:18:07;;;;;;;18.23;8.75;;;;;;;2.19;49.30;100325.47;4317996;33;34181;-66
2022/03/09 05:20:35;;;;;;;16.90;8.88;;;;;;;1.99;49.08;100326.97;4317665;33;34252;-67
2022/03/09 05:23:02;;;;;;;17.45;8.70;;;;;;;1.57;50.47;100333.59;4318224;33;33634;-67
2022/03/09 05:25:30;;;;;;;19.25;9.25;;;;;;;1.98;50.61;100339.50;4317693;33;33542;-67
2022/03/09 05:27:59;;;;;;;5.35;2.85;;;;;;;1.65;50.78;100341.56;4317814;33;33948;-68
2022/03/09 05:30:27;;;;;;;14.52;8.52;;;;;;;2.16;48.94;100344.56;4317864;33;34283;-66
2022/03/09 05:32:55;;;;;;;1.65;0.65;;;;;;;2.10;49.29;100341.78;4317819;33;33975;-67
2022/03/09 05:35:23;;;;;;;16.27;9.02;;;;;;;2.14;48.73;100338.56;4317608;33;34347;-67
2022/03/09 05:37:50;;;;;;;1.23;1.15;;;;;;;1.96;49.35;100346.88;4317677;33;34561;-67
2022/03/09 05:40:18;;;;;;;17.48;9.10;;;;;;;2.20;49.25;100345.87;4325328;33;34989;-68
2022/03/09 05:42:46;;;;;;;16.15;8.50;;;;;;;2.15;49.49;100344.75;4317259;33;34764;-69
2022/03/09 05:45:19;;;;;;;16.73;8.02;;;;;;;2.59;48.51;100341.34;4317540;33;34458;-71
2022/03/09 05:47:51;;;;;;;16.83;8.65;;;;;;;2.62;47.65;100346.34;4317332;33;33925;-69
2022/03/09 05:50:20;;;;;;;14.13;7.87;;;;;;;3.08;46.69;100341.66;4303983;33;33682;-68
2022/03/09 05:52:47;;;;;;;15.45;8.52;;;;;;;3.15;46.05;100351.66;4317091;33;34712;-71
2022/03/09 05:55:15;;;;;;;14.18;8.45;;;;;;;2.72;46.98;100362.16;4316021;33;33359;-68
2022/03/09 05:57:46;;;;;;;14.27;8.18;;;;;;;2.82;47.15;100376.94;4315900;33;33650;-73
2022/03/09 06:00:15;;;;;;;14.48;8.48;;;;;;;3.03;46.95;100378.09;4317307;33;33931;-67
2022/03/09 06:02:43;;;;;;;15.00;8.55;;;;;;;2.74;46.73;100393.09;4316846;33;33825;-69
2022/03/09 06:05:16;;;;;;;14.00;8.18;;;;;;;2.83;46.31;100391.19;4310627;33;34510;-65
2022/03/09 06:07:44;;;;;;;17.27;8.18;;;;;;;3.10;45.88;100396.97;4316096;33;33987;-70
2022/03/09 06:10:15;;;;;;;16.00;9.23;;;;;;;2.91;46.43;100406.34;4316904;33;34371;-67
2022/03/09 06:12:43;;;;;;;1.02;1.00;;;;;;;3.01;47.32;100404.25;4316224;33;33563;-65
2022/03/09 06:15:10;;;;;;;2.30;2.15;;;;;;;3.55;44.59;100412.03;4317157;33;34271;-66
2022/03/09 06:17:46;;;;;;;16.77;9.25;;;;;;;3.74;44.17;100412.44;4316649;33;34537;-64
2022/03/09 06:20:18;;;;;;;0.80;0.70;;;;;;;3.27;45.45;100407.31;4316939;33;34857;-65
2022/03/09 06:22:46;;;;;;;14.98;9.25;;;;;;;3.54;45.52;100410.34;4316133;33;33727;-67
2022/03/09 06:25:14;;;;;;;18.77;9.50;;;;;;;3.08;46.94;100411.38;4316759;33;33314;-67
2022/03/09 06:27:43;;;;;;;19.35;9.95;;;;;;;3.48;45.18;100417.31;4316641;33;33643;-66
2022/03/09 06:30:11;;;;;;;15.15;9.60;;;;;;;3.09;46.97;100409.53;4316068;33;33975;-66
2022/03/09 06:32:39;;;;;;;18.60;10.02;;;;;;;3.33;47.40;100412.97;4316370;33;33983;-69
2022/03/09 06:35:07;;;;;;;17.48;9.85;;;;;;;3.57;45.91;100417.22;4316860;33;33536;-69
2022/03/09 06:37:35;;;;;;;2.05;1.92;;;;;;;3.25;45.88;100409.34;4316593;33;34045;-65
2022/03/09 06:40:07;;;;;;;17.37;9.70;;;;;;;3.73;45.07;100408.09;4316593;33;33862;-67
2022/03/09 06:42:35;;;;;;;18.80;10.10;;;;;;;3.46;45.61;100413.97;4316313;33;34040;-66
2022/03/09 06:45:03;;;;;;;17.55;9.88;;;;;;;3.70;44.80;100414.69;4316543;33;33352;-65
2022/03/09 06:47:32;;;;;;;17.10;10.20;;;;;;;3.54;45.62;100415.72;4316794;33;34070;-68
2022/03/09 06:50:00;;;;;;;16.42;10.05;;;;;;;3.69;45.14;100415.69;4316315;33;33626;-68
2022/03/09 06:52:27;;;;;;;17.40;9.70;;;;;;;3.48;45.23;100414.62;4316672;33;34236;-67
2022/03/09 06:54:55;;;;;;;18.45;10.05;;;;;;;4.00;45.60;100417.31;4316054;33;34309;-67
2022/03/09 06:57:22;;;;;;;16.77;9.20;;;;;;;4.07;44.08;100419.03;4315809;33;34869;-68
2022/03/09 06:59:50;;;;;;;19.33;10.80;;;;;;;3.88;44.61;100417.78;4316469;33;34159;-68
2022/03/09 07:02:17;;;;;;;18.60;10.27;;;;;;;4.12;44.20;100423.84;4316237;33;34562;-67
2022/03/09 07:04:45;;;;;;;18.73;10.40;;;;;;;3.98;44.25;100422.03;4316142;33;33033;-67
2022/03/09 07:07:13;;;;;;;18.65;10.75;;;;;;;4.18;44.68;100427.63;4316007;33;34000;-67
2022/03/09 07:09:40;;;;;;;18.08;10.93;;;;;;;4.34;45.74;100430.06;4316237;33;33771;-68
2022/03/09 07:12:08;;;;;;;18.50;10.95;;;;;;;4.65;43.09;100427.06;4314982;33;34248;-66
2022/03/09 07:14:37;;;;;;;21.37;11.65;;;;;;;4.64;43.39;100425.38;4317861;33;33833;-67
2022/03/09 07:17:06;;;;;;;20.85;11.73;;;;;;;4.94;42.83;100430.59;4317509;33;34839;-64
2022/03/09 07:19:33;;;;;;;21.10;11.12;;;;;;;4.44;45.14;100432.44;4314969;33;34237;-68
2022/03/09 07:22:01;;;;;;;20.67;11.52;;;;;;;3.66;46.65;100440.22;4316432;33;34106;-68
2022/03/09 07:24:28;;;;;;;19.70;11.30;;;;;;;4.37;45.68;100453.03;4318143;33;33108;-69
2022/03/09 07:26:56;;;;;;;22.50;11.70;;;;;;;4.06;46.05;100456.81;4317643;33;33992;-67
2022/03/09 07:29:23;;;;;;;18.83;11.15;;;;;;;4.56;45.09;100459.62;4318178;33;33943;-69
2022/03/09 07:31:52;;;;;;;20.88;11.52;;;;;;;4.56;45.09;100460.47;4318182;33;34662;-68
2022/03/09 07:34:22;;;;;;;21.55;12.15;;;;;;;3.90;46.64;100457.87;4317777;33;34124;-66
2022/03/09 07:36:50;;;;;;;20.62;11.57;;;;;;;4.06;46.37;100457.66;4318182;33;33542;-67
2022/03/09 07:39:19;;;;;;;21.80;11.93;;;;;;;4.07;46.52;100453.13;4318406;33;34335;-68
2022/03/09 07:41:47;;;;;;;19.00;11.73;;;;;;;4.11;46.88;100443.66;4326569;33;34863;-66
2022/03/09 07:44:17;;;;;;;1.15;1.00;;;;;;;4.64;45.49;100428.06;4332516;33;33627;-66
2022/03/09 07:46:45;;;;;;;19.98;12.50;;;;;;;4.92;44.25;100411.13;4332573;33;33840;-67
2022/03/09 07:49:13;;;;;;;20.12;11.80;;;;;;;4.68;44.93;100410.53;4332141;33;34364;-67
2022/03/09 07:51:40;;;;;;;21.08;12.45;;;;;;;4.93;44.20;100410.94;4332531;33;34689;-67
2022/03/09 07:54:07;;;;;;;1.75;1.27;;;;;;;5.38;43.50;100410.63;4332711;33;33730;-69
2022/03/09 07:56:36;;;;;;;19.75;12.35;;;;;;;4.70;45.14;100413.84;4331512;33;33960;-67
2022/03/09 07:59:05;;;;;;;19.77;11.95;;;;;;;4.59;45.59;100418.94;4322525;33;34206;-66
2022/03/09 08:01:32;;;;;;;23.12;12.43;;;;;;;4.64;45.88;100428.06;4318210;33;33895;-67
2022/03/09 08:04:00;;;;;;;0.98;0.98;;;;;;;4.81;44.68;100417.06;4318022;33;33194;-69
2022/03/09 08:06:28;;;;;;;23.15;12.52;;;;;;;4.76;45.48;100424.88;4318005;33;34805;-67
2022/03/09 08:08:55;;;;;;;21.73;12.27;;;;;;;5.17;45.14;100421.47;4318233;33;34259;-67
2022/03/09 08:11:23;;;;;;;19.77;11.85;;;;;;;5.21;44.86;100412.78;4318088;33;34563;-68
2022/03/09 08:13:50;;;;;;;22.58;12.85;;;;;;;5.40;44.04;100415.78;4318061;33;34368;-67
2022/03/09 08:16:17;;;;;;;23.38;13.32;;;;;;;5.65;43.51;100426.91;4317830;33;33897;-67
2022/03/09 08:18:45;;;;;;;23.00;13.75;;;;;;;5.50;43.69;100419.78;4318298;33;33938;-66
2022/03/09 08:21:12;;;;;;;20.73;12.68;;;;;;;5.66;44.25;100409.72;4318532;33;34092;-66
2022/03/09 08:23:40;;;;;;;19.52;11.75;;;;;;;5.39;44.96;100414.13;4316052;33;34378;-64
2022/03/09 08:26:08;;;;;;;22.55;12.50;;;;;;;5.56;44.04;100412.78;4316149;33;33688;-66
2022/03/09 08:28:36;;;;;;;23.50;13.15;;;;;;;5.74;43.66;100415.78;4318233;33;34303;-66
2022/03/09 08:31:03;;;;;;;19.58;12.02;;;;;;;5.12;44.98;100408.59;4318381;33;34170;-66
2022/03/09 08:33:31;;;;;;;22.02;12.63;;;;;;;6.14;43.43;100390.88;4317740;33;34557;-66
2022/03/09 08:35:59;;;;;;;21.98;13.13;;;;;;;6.39;42.77;100390.28;4317695;33;33996;-66
2022/03/09 08:38:27;;;;;;;24.17;13.60;;;;;;;6.48;43.04;100389.87;4315015;33;84110;-65
2022/03/09 08:40:55;;;;;;;22.35;12.63;;;;;;;5.71;44.60;100394.62;4318334;33;34060;-65
2022/03/09 08:43:23;;;;;;;23.23;12.80;;;;;;;5.89;43.97;100390.53;4318120;33;34355;-67
2022/03/09 08:45:51;;;;;;;21.50;12.35;;;;;;;6.26;43.38;100394.59;4317545;33;33777;-67
2022/03/09 08:48:19;;;;;;;21.70;13.45;;;;;;;6.46;42.66;100399.22;4318253;33;34008;-66
2022/03/09 08:50:46;;;;;;;20.77;12.10;;;;;;;6.92;43.06;100398.38;4318258;33;33702;-66
2022/03/09 08:53:15;;;;;;;21.02;12.23;;;;;;;7.50;41.00;100394.94;4317919;33;33244;-66
2022/03/09 08:55:43;;;;;;;20.08;12.18;;;;;;;7.59;39.97;100391.78;4317540;33;33873;-69
2022/03/09 08:58:11;;;;;;;19.95;12.10;;;;;;;8.26;39.47;100391.47;4318104;33;35159;-70
2022/03/09 09:00:38;;;;;;;20.77;12.25;;;;;;;8.42;38.20;100390.13;4318102;33;33457;-68
2022/03/09 09:03:06;;;;;;;20.98;12.25;;;;;;;8.52;38.54;100389.66;4317985;33;34492;-69
2022/03/09 09:05:33;;;;;;;20.83;12.05;;;;;;;8.22;39.37;100377.53;4317658;33;34132;-71
2022/03/09 09:08:01;;;;;;;18.17;11.18;;;;;;;8.35;39.49;100378.50;4317739;33;33892;-72
2022/03/09 09:10:49;;;;;;;18.90;12.10;;;;;;;8.65;37.73;100381.44;4317904;33;34009;-71
2022/03/09 09:13:16;;;;;;;19.92;12.27;;;;;;;7.98;39.15;100379.13;4317630;33;34258;-69
2022/03/09 09:15:44;;;;;;;20.27;11.48;;;;;;;8.30;38.77;100375.63;4316994;33;33886;-71
2022/03/09 09:18:11;;;;;;;18.60;11.35;;;;;;;8.16;39.30;100374.88;4316479;33;34034;-71
2022/03/09 09:21:00;;;;;;;19.80;11.80;;;;;;;8.56;39.36;100371.94;4317852;33;33546;-72
2022/03/09 09:23:28;;;;;;;22.40;12.43;;;;;;;8.48;38.47;100366.78;4317780;33;33512;-71
2022/03/09 09:25:55;;;;;;;18.73;10.73;;;;;;;8.62;38.81;100358.34;4317353;33;33734;-71
2022/03/09 09:28:23;;;;;;;16.75;10.45;;;;;;;8.04;39.82;100365.81;4318338;33;34027;-69
2022/03/09 09:30:51;;;;;;;17.55;10.70;;;;;;;8.96;38.46;100364.31;4304680;33;34796;-70
2022/03/09 09:33:18;;;;;;;17.25;10.52;;;;;;;9.19;37.67;100360.13;4317454;33;34353;-71
2022/03/09 09:35:48;;;;;;;18.10;10.50;;;;;;;9.80;37.68;100358.34;4317508;33;33768;-71
2022/03/09 09:38:16;;;;;;;18.35;10.57;;;;;;;9.21;37.62;100361.53;4317406;33;35136;-71
2022/03/09 09:40:45;;;;;;;18.45;10.98;;;;;;;8.61;39.56;100351.28;4317566;33;34684;-69
2022/03/09 09:43:14;;;;;;;18.08;11.02;;;;;;;8.14;39.68;100360.75;4317893;33;33375;-71
2022/03/09 09:45:42;;;;;;;19.10;11.50;;;;;;;8.04;39.54;100355.00;4317138;33;34071;-69
2022/03/09 09:48:10;;;;;;;19.75;10.52;;;;;;;8.33;40.63;100364.38;4317855;33;33948;-72
2022/03/09 09:50:39;;;;;;;18.02;10.35;;;;;;;8.17;40.67;100360.34;4317733;33;33604;-72
2022/03/09 09:53:08;;;;;;;20.30;11.12;;;;;;;7.88;40.21;100364.44;4317586;33;33695;-70
2022/03/09 09:55:36;;;;;;;19.37;10.88;;;;;;;8.70;39.76;100362.66;4317110;33;34021;-70
2022/03/09 09:58:04;;;;;;;16.95;10.10;;;;;;;8.79;38.99;100360.50;4317540;33;35011;-71
2022/03/09 10:00:32;;;;;;;16.45;9.80;;;;;;;9.58;38.41;100358.81;4317358;33;33575;-71
2022/03/09 10:03:03;;;;;;;17.92;9.73;;;;;;;8.95;38.52;100357.22;4292691;33;32684;-72
2022/03/09 10:05:31;;;;;;;17.17;9.07;;;;;;;10.05;37.48;100360.94;4304156;33;34758;-72
2022/03/09 10:08:04;;;;;;;14.75;8.95;;;;;;;9.86;36.13;100362.84;4317006;33;33978;-72
2022/03/09 10:10:44;;;;;;;16.12;9.75;;;;;;;8.93;38.53;100347.69;4317276;33;34136;-71
2022/03/09 10:13:16;;;;;;;14.70;8.98;;;;;;;8.77;38.93;100357.22;4304042;33;33287;-72
2022/03/09 10:15:45;;;;;;;13.07;8.70;;;;;;;9.58;37.94;100348.00;4316328;33;33580;-71
2022/03/09 10:18:17;;;;;;;15.15;7.97;;;;;;;10.35;36.61;100339.22;4317504;33;34069;-71
2022/03/09 10:20:47;;;;;;;15.13;8.48;;;;;;;11.00;35.69;100341.03;4317236;33;34332;-71
2022/03/09 10:23:16;;;;;;;16.58;8.50;;;;;;;11.21;34.61;100346.91;4317223;33;33449;-72
2022/03/09 10:25:47;;;;;;;15.07;8.48;;;;;;;11.10;34.60;100343.19;4316798;33;34733;-72
2022/03/09 10:28:14;;;;;;;13.18;8.27;;;;;;;11.17;35.24;100338.44;4317395;33;33899;-76
2022/03/09 10:30:42;;;;;;;17.37;9.07;;;;;;;10.83;35.31;100340.94;4317338;33;33551;-71
2022/03/09 10:33:12;;;;;;;12.05;7.68;;;;;;;11.07;36.19;100332.78;4317115;33;33343;-71
2022/03/09 10:35:42;;;;;;;16.25;8.60;;;;;;;11.36;35.41;100335.56;4316632;33;34879;-70
2022/03/09 10:38:15;;;;;;;13.75;8.48;;;;;;;10.37;36.20;100322.75;4317200;33;33860;-69
2022/03/09 10:40:46;;;;;;;14.20;8.23;;;;;;;10.97;36.17;100313.53;4316970;33;33748;-68
2022/03/09 10:43:17;;;;;;;12.65;7.80;;;;;;;11.26;35.56;100309.84;4317120;33;33265;-68
2022/03/09 10:46:11;;;;;;;13.88;7.87;;;;;;;11.33;34.79;100303.44;4316606;33;34948;-68
2022/03/09 10:48:57;;;;;;;13.20;7.50;;;;;;;12.06;34.53;100307.34;4317150;33;34017;-68
2022/03/09 10:51:34;;;;;;;16.05;8.50;;;;;;;11.57;35.39;100288.72;4318969;33;34328;-69
2022/03/09 10:54:10;;;;;;;16.73;8.10;;;;;;;12.68;33.84;100298.28;4318371;33;33578;-67
2022/03/09 10:56:39;;;;;;;11.68;7.87;;;;;;;12.10;35.00;100289.47;4318174;33;34616;-68
2022/03/09 10:59:12;;;;;;;13.55;7.55;;;;;;;12.10;35.11;100284.84;4318451;33;33920;-68
2022/03/09 11:01:40;;;;;;;13.98;8.20;;;;;;;12.58;33.75;100292.69;4318278;33;34274;-69
2022/03/09 11:04:13;;;;;;;13.85;8.30;;;;;;;11.53;34.63;100292.97;4302873;33;33671;-67
2022/03/09 11:06:46;;;;;;;14.18;7.87;;;;;;;12.86;33.35;100295.28;4318320;33;34347;-70
2022/03/09 11:09:18;;;;;;;12.85;8.45;;;;;;;11.92;34.37;100285.03;4317719;33;33974;-67
2022/03/09 11:11:48;;;;;;;15.05;9.18;;;;;;;11.55;34.53;100279.97;4318289;33;33758;-66
2022/03/09 11:14:18;;;;;;;15.63;9.27;;;;;;;11.98;34.45;100284.06;4318149;33;33440;-72
2022/03/09 11:16:50;;;;;;;15.52;9.00;;;;;;;12.40;33.69;100272.00;4293456;33;34711;-69
2022/03/09 11:19:19;;;;;;;16.08;9.40;;;;;;;10.98;37.01;100282.62;4318013;33;34157;-69
2022/03/09 11:21:47;;;;;;;14.87;8.55;;;;;;;11.37;35.84;100281.00;4317556;33;33984;-69
2022/03/09 11:24:19;;;;;;;14.85;8.80;;;;;;;11.86;35.51;100281.37;4318080;33;33507;-69
2022/03/09 11:26:50;;;;;;;14.93;8.95;;;;;;;11.41;36.17;100284.06;4318041;33;34051;-69
2022/03/09 11:29:33;;;;;;;14.35;9.15;;;;;;;11.60;35.60;100273.84;4305221;33;33972;-69
2022/03/09 11:32:06;;;;;;;16.23;8.40;;;;;;;11.33;36.79;100273.56;4317719;33;34454;-69